createdAt,value
2022-11-05T00:00:35.208Z,0.00
2022-11-05T00:01:36.559Z,0.00
2022-11-05T00:02:36.763Z,0.00
2022-11-05T00:03:37.054Z,0.00
2022-11-05T00:04:36.220Z,0.00
2022-11-05T00:05:35.524Z,0.00
2022-11-05T00:06:37.752Z,0.00
2022-11-05T00:07:36.979Z,0.00
2022-11-05T00:08:36.174Z,0.00
2022-11-05T00:09:35.357Z,0.00
2022-11-05T00:10:50.185Z,0.00
2022-11-05T00:11:35.854Z,0.00
2022-11-05T00:12:37.155Z,0.00
2022-11-05T00:13:35.367Z,0.00
2022-11-05T00:14:35.585Z,0.00
2022-11-05T00:15:41.025Z,0.00
2022-11-05T00:16:37.480Z,0.00
2022-11-05T00:17:35.269Z,0.00
2022-11-05T00:18:36.524Z,0.00
2022-11-05T00:19:35.773Z,0.00
2022-11-05T00:20:36.981Z,0.00
2022-11-05T00:21:36.132Z,0.00
2022-11-05T00:22:36.367Z,0.00
2022-11-05T00:23:36.582Z,0.00
2022-11-05T00:24:35.147Z,0.00
2022-11-05T00:25:34.983Z,0.04
2022-11-05T00:26:36.198Z,0.00
2022-11-05T00:27:35.361Z,0.00
2022-11-05T00:28:37.043Z,0.00
2022-11-05T00:29:35.791Z,0.00
2022-11-05T00:30:34.967Z,0.00
2022-11-05T00:31:35.167Z,0.00
2022-11-05T00:32:35.365Z,0.00
2022-11-05T00:33:35.543Z,0.00
2022-11-05T00:34:37.220Z,0.00
2022-11-05T00:35:35.916Z,0.00
2022-11-05T00:36:37.164Z,0.00
2022-11-05T00:37:36.292Z,0.00
2022-11-05T00:38:35.476Z,0.00
2022-11-05T00:39:37.684Z,0.00
2022-11-05T00:40:35.933Z,0.00
2022-11-05T00:41:35.054Z,0.00
2022-11-05T00:42:35.278Z,0.00
2022-11-05T00:43:36.530Z,0.00
2022-11-05T00:44:36.718Z,0.00
2022-11-05T00:45:34.843Z,0.00
2022-11-05T00:46:36.235Z,0.00
2022-11-05T00:47:36.417Z,0.00
2022-11-05T00:48:36.645Z,0.00
2022-11-05T00:49:36.905Z,0.00
2022-11-05T00:50:36.124Z,0.00
2022-11-05T00:51:35.369Z,0.00
2022-11-05T00:52:35.658Z,0.00
2022-11-05T00:53:35.823Z,0.00
2022-11-05T00:54:35.028Z,0.00
2022-11-05T00:55:35.278Z,0.00
2022-11-05T00:56:34.501Z,0.00
2022-11-05T00:58:37.076Z,0.00
2022-11-05T01:00:36.552Z,0.00
2022-11-05T01:01:36.859Z,0.00
2022-11-05T01:02:36.104Z,0.00
2022-11-05T01:03:35.267Z,0.00
2022-11-05T01:04:36.551Z,0.00
2022-11-05T01:05:35.736Z,0.00
2022-11-05T01:06:34.968Z,0.00
2022-11-05T01:07:36.266Z,0.00
2022-11-05T01:08:34.456Z,0.00
2022-11-05T01:09:49.312Z,0.00
2022-11-05T01:10:36.024Z,0.00
2022-11-05T01:11:35.258Z,0.00
2022-11-05T01:12:35.535Z,0.00
2022-11-05T01:13:34.767Z,0.00
2022-11-05T01:14:35.023Z,0.00
2022-11-05T01:15:35.285Z,0.00
2022-11-05T01:16:34.446Z,0.00
2022-11-05T01:17:36.761Z,0.00
2022-11-05T01:18:35.992Z,0.00
2022-11-05T01:19:35.189Z,0.00
2022-11-05T01:20:36.578Z,0.00
2022-11-05T01:22:35.034Z,0.00
2022-11-05T01:23:35.192Z,0.00
2022-11-05T01:24:34.396Z,0.00
2022-11-05T01:25:34.661Z,0.00
2022-11-05T01:26:34.959Z,0.00
2022-11-05T01:27:34.215Z,0.00
2022-11-05T01:28:35.576Z,0.00
2022-11-05T01:29:36.747Z,0.00
2022-11-05T01:30:34.896Z,0.00
2022-11-05T01:31:34.101Z,0.00
2022-11-05T01:32:35.596Z,0.00
2022-11-05T01:34:36.909Z,0.00
2022-11-05T01:35:36.098Z,0.00
2022-11-05T01:36:36.358Z,0.00
2022-11-05T01:37:37.026Z,0.00
2022-11-05T01:38:41.965Z,0.00
2022-11-05T01:39:35.003Z,0.00
2022-11-05T01:40:34.249Z,0.00
2022-11-05T01:41:34.474Z,0.00
2022-11-05T01:42:36.800Z,0.00
2022-11-05T01:43:35.091Z,0.00
2022-11-05T01:44:36.309Z,0.00
2022-11-05T01:45:34.464Z,0.00
2022-11-05T01:46:36.816Z,0.04
2022-11-05T01:47:33.961Z,0.00
2022-11-05T01:48:35.256Z,0.00
2022-11-05T01:49:35.526Z,0.00
2022-11-05T01:50:34.698Z,0.00
2022-11-05T01:51:34.934Z,0.00
2022-11-05T01:52:35.157Z,0.00
2022-11-05T01:53:35.453Z,0.00
2022-11-05T01:54:34.615Z,0.00
2022-11-05T01:55:34.957Z,0.00
2022-11-05T01:56:34.156Z,0.00
2022-11-05T01:57:34.417Z,0.00
2022-11-05T01:58:34.657Z,0.00
2022-11-05T01:59:33.908Z,0.00
2022-11-05T02:00:34.123Z,0.00
2022-11-05T02:01:34.430Z,0.00
2022-11-05T02:02:34.720Z,0.00
2022-11-05T02:03:33.808Z,0.00
2022-11-05T02:04:34.082Z,0.00
2022-11-05T02:05:35.348Z,0.00
2022-11-05T02:06:34.546Z,0.00
2022-11-05T02:07:34.805Z,0.00
2022-11-05T02:08:34.016Z,0.00
2022-11-05T02:09:36.368Z,0.00
2022-11-05T02:10:35.521Z,0.00
2022-11-05T02:11:35.766Z,0.00
2022-11-05T02:12:33.917Z,0.00
2022-11-05T02:14:35.423Z,0.00
2022-11-05T02:15:33.752Z,0.00
2022-11-05T02:16:33.850Z,0.04
2022-11-05T02:17:34.103Z,0.00
2022-11-05T02:18:34.348Z,0.00
2022-11-05T02:19:34.581Z,0.00
2022-11-05T02:20:35.494Z,0.00
2022-11-05T02:21:35.085Z,0.00
2022-11-05T02:22:35.361Z,0.00
2022-11-05T02:23:35.608Z,0.00
2022-11-05T02:24:34.828Z,0.00
2022-11-05T02:25:34.061Z,0.00
2022-11-05T02:26:34.395Z,0.00
2022-11-05T02:27:34.587Z,0.00
2022-11-05T02:28:34.820Z,0.00
2022-11-05T02:29:35.091Z,0.00
2022-11-05T02:30:35.345Z,0.00
2022-11-05T02:31:35.618Z,0.00
2022-11-05T02:32:34.794Z,0.00
2022-11-05T02:33:34.838Z,0.00
2022-11-05T02:34:35.092Z,0.00
2022-11-05T02:35:33.275Z,0.00
2022-11-05T02:36:34.560Z,0.00
2022-11-05T02:37:35.237Z,0.00
2022-11-05T02:38:34.073Z,0.00
2022-11-05T02:39:36.319Z,0.00
2022-11-05T02:40:33.551Z,0.00
2022-11-05T02:41:33.839Z,0.00
2022-11-05T02:42:35.158Z,0.00
2022-11-05T02:43:34.790Z,0.00
2022-11-05T02:44:33.580Z,0.00
2022-11-05T02:45:33.873Z,0.00
2022-11-05T02:46:33.079Z,0.00
2022-11-05T02:47:35.425Z,0.00
2022-11-05T02:48:33.619Z,0.00
2022-11-05T02:49:33.892Z,0.00
2022-11-05T02:51:34.748Z,0.00
2022-11-05T02:53:34.191Z,0.00
2022-11-05T02:54:34.489Z,0.00
2022-11-05T02:55:34.662Z,0.00
2022-11-05T02:56:34.889Z,0.00
2022-11-05T02:57:35.131Z,0.00
2022-11-05T02:58:33.303Z,0.00
2022-11-05T02:59:33.773Z,0.00
2022-11-05T03:00:34.609Z,0.00
2022-11-05T03:01:34.930Z,0.00
2022-11-05T03:02:33.198Z,0.00
2022-11-05T03:03:38.439Z,0.00
2022-11-05T03:04:33.472Z,0.00
2022-11-05T03:05:38.141Z,0.00
2022-11-05T03:06:32.958Z,0.00
2022-11-05T03:07:35.302Z,0.00
2022-11-05T03:08:34.523Z,0.00
2022-11-05T03:09:34.790Z,0.00
2022-11-05T03:10:32.982Z,0.00
2022-11-05T03:11:40.519Z,0.00
2022-11-05T03:12:34.566Z,0.00
2022-11-05T03:13:34.817Z,0.00
2022-11-05T03:14:34.025Z,0.00
2022-11-05T03:15:34.289Z,0.00
2022-11-05T03:16:34.558Z,0.00
2022-11-05T03:17:32.759Z,0.00
2022-11-05T03:18:35.053Z,0.00
2022-11-05T03:19:33.224Z,0.00
2022-11-05T03:20:33.473Z,0.00
2022-11-05T03:21:33.735Z,0.00
2022-11-05T03:22:34.175Z,0.00
2022-11-05T03:23:33.201Z,0.00
2022-11-05T03:24:33.440Z,0.00
2022-11-05T03:25:32.665Z,0.00
2022-11-05T03:26:33.959Z,0.00
2022-11-05T03:27:33.177Z,0.00
2022-11-05T03:28:33.494Z,0.00
2022-11-05T03:29:32.686Z,0.00
2022-11-05T03:30:32.928Z,0.00
2022-11-05T03:31:35.275Z,0.00
2022-11-05T03:32:35.546Z,0.00
2022-11-05T03:33:33.719Z,0.00
2022-11-05T03:34:33.973Z,0.00
2022-11-05T03:35:39.410Z,0.00
2022-11-05T03:36:34.472Z,0.00
2022-11-05T03:37:32.634Z,0.00
2022-11-05T03:38:32.883Z,0.00
2022-11-05T03:39:34.361Z,0.00
2022-11-05T03:41:33.677Z,0.00
2022-11-05T03:42:33.957Z,0.00
2022-11-05T03:43:34.223Z,0.00
2022-11-05T03:44:33.453Z,0.04
2022-11-05T03:45:33.717Z,0.00
2022-11-05T03:46:32.954Z,0.00
2022-11-05T03:47:33.201Z,0.00
2022-11-05T03:48:33.508Z,0.00
2022-11-05T03:50:12.194Z,0.00
2022-11-05T03:50:35.866Z,0.00
2022-11-05T03:51:34.174Z,0.00
2022-11-05T03:52:32.362Z,0.00
2022-11-05T03:53:32.629Z,0.00
2022-11-05T03:54:33.935Z,0.00
2022-11-05T03:55:33.172Z,0.00
2022-11-05T03:56:33.400Z,0.00
2022-11-05T03:57:32.625Z,0.00
2022-11-05T03:58:32.851Z,0.00
2022-11-05T03:59:33.124Z,0.00
2022-11-05T04:00:32.345Z,0.00
2022-11-05T04:01:32.851Z,0.00
2022-11-05T04:02:33.051Z,0.00
2022-11-05T04:03:34.097Z,0.00
2022-11-05T04:04:32.268Z,0.00
2022-11-05T04:05:32.514Z,0.00
2022-11-05T04:06:32.754Z,0.00
2022-11-05T04:07:33.004Z,0.00
2022-11-05T04:08:34.293Z,0.00
2022-11-05T04:09:33.492Z,0.00
2022-11-05T04:10:35.840Z,0.00
2022-11-05T04:11:31.923Z,0.00
2022-11-05T04:12:34.277Z,0.00
2022-11-05T04:13:32.412Z,0.00
2022-11-05T04:14:32.670Z,0.00
2022-11-05T04:15:31.885Z,0.00
2022-11-05T04:16:31.972Z,0.00
2022-11-05T04:17:32.210Z,0.00
2022-11-05T04:18:32.586Z,0.00
2022-11-05T04:19:32.691Z,0.00
2022-11-05T04:20:32.946Z,0.00
2022-11-05T04:21:33.202Z,0.00
2022-11-05T04:22:32.392Z,0.00
2022-11-05T04:23:32.665Z,0.00
2022-11-05T04:24:33.326Z,0.00
2022-11-05T04:25:33.616Z,0.00
2022-11-05T04:26:32.856Z,0.00
2022-11-05T04:27:33.130Z,0.00
2022-11-05T04:28:33.488Z,0.00
2022-11-05T04:29:32.624Z,0.00
2022-11-05T04:30:32.903Z,0.00
2022-11-05T04:31:33.173Z,0.00
2022-11-05T04:32:32.403Z,0.00
2022-11-05T04:33:32.649Z,0.00
2022-11-05T04:34:32.406Z,0.00
2022-11-05T04:35:32.592Z,0.00
2022-11-05T04:36:31.804Z,0.00
2022-11-05T04:37:33.093Z,0.00
2022-11-05T04:38:32.300Z,0.00
2022-11-05T04:39:32.549Z,0.00
2022-11-05T04:40:39.028Z,0.00
2022-11-05T04:41:33.030Z,0.00
2022-11-05T04:42:32.255Z,0.00
2022-11-05T04:43:32.476Z,0.00
2022-11-05T04:44:32.745Z,0.00
2022-11-05T04:45:34.112Z,0.00
2022-11-05T04:46:32.159Z,0.00
2022-11-05T04:47:32.397Z,0.00
2022-11-05T04:48:33.683Z,0.00
2022-11-05T04:49:46.394Z,0.00
2022-11-05T04:50:34.176Z,0.00
2022-11-05T04:52:31.560Z,0.00
2022-11-05T04:53:32.837Z,0.00
2022-11-05T04:54:34.113Z,0.00
2022-11-05T04:56:32.566Z,0.00
2022-11-05T04:57:32.752Z,0.00
2022-11-05T04:58:33.928Z,0.00
2022-11-05T04:59:33.213Z,0.00
2022-11-05T05:00:33.528Z,0.00
2022-11-05T05:01:33.860Z,0.00
2022-11-05T05:02:33.938Z,0.00
2022-11-05T05:03:32.106Z,0.00
2022-11-05T05:04:31.310Z,0.00
2022-11-05T05:05:32.574Z,0.00
2022-11-05T05:06:31.797Z,0.00
2022-11-05T05:07:32.231Z,0.00
2022-11-05T05:08:33.343Z,0.00
2022-11-05T05:09:31.497Z,0.00
2022-11-05T05:10:46.306Z,0.00
2022-11-05T05:11:32.026Z,0.00
2022-11-05T05:12:32.308Z,0.00
2022-11-05T05:13:33.614Z,0.00
2022-11-05T05:14:33.895Z,0.00
2022-11-05T05:15:33.107Z,0.00
2022-11-05T05:17:34.344Z,0.00
2022-11-05T05:18:32.901Z,0.00
2022-11-05T05:19:32.129Z,0.00
2022-11-05T05:20:33.434Z,0.00
2022-11-05T05:21:32.086Z,0.00
2022-11-05T05:22:32.324Z,0.00
2022-11-05T05:23:37.843Z,0.00
2022-11-05T05:24:31.795Z,0.00
2022-11-05T05:25:32.073Z,0.00
2022-11-05T05:26:32.304Z,0.00
2022-11-05T05:27:31.500Z,0.00
2022-11-05T05:28:32.789Z,0.00
2022-11-05T05:29:30.976Z,0.00
2022-11-05T05:30:31.320Z,0.00
2022-11-05T05:31:31.528Z,0.00
2022-11-05T05:32:31.809Z,0.00
2022-11-05T05:33:31.018Z,0.00
2022-11-05T05:34:32.367Z,0.02
2022-11-05T05:35:31.708Z,0.00
2022-11-05T05:36:32.867Z,0.00
2022-11-05T05:37:32.109Z,0.00
2022-11-05T05:38:31.404Z,0.00
2022-11-05T05:39:31.615Z,0.00
2022-11-05T05:40:30.830Z,0.00
2022-11-05T05:41:32.129Z,0.00
2022-11-05T05:42:32.359Z,0.01
2022-11-05T05:43:32.640Z,0.02
2022-11-05T05:44:31.866Z,0.01
2022-11-05T05:45:31.075Z,0.01
2022-11-05T05:46:32.381Z,0.05
2022-11-05T05:47:32.605Z,0.03
2022-11-05T05:48:31.821Z,0.02
2022-11-05T05:49:31.045Z,0.14
2022-11-05T05:50:31.335Z,0.03
2022-11-05T05:51:31.584Z,0.03
2022-11-05T05:52:30.788Z,0.03
2022-11-05T05:53:32.088Z,0.08
2022-11-05T05:54:33.561Z,0.05
2022-11-05T05:55:31.576Z,0.06
2022-11-05T05:56:30.825Z,0.12
2022-11-05T05:57:31.088Z,0.23
2022-11-05T05:58:31.335Z,0.27
2022-11-05T05:59:32.643Z,0.28
2022-11-05T06:00:30.831Z,0.44
2022-11-05T06:01:31.225Z,0.35
2022-11-05T06:02:32.597Z,0.40
2022-11-05T06:03:31.661Z,0.45
2022-11-05T06:04:30.855Z,0.51
2022-11-05T06:05:32.176Z,0.54
2022-11-05T06:06:31.436Z,0.67
2022-11-05T06:07:35.946Z,0.81
2022-11-05T06:08:31.876Z,0.98
2022-11-05T06:09:31.134Z,1.18
2022-11-05T06:11:10.992Z,1.56
2022-11-05T06:11:30.608Z,1.65
2022-11-05T06:12:30.940Z,1.95
2022-11-05T06:13:32.285Z,2.32
2022-11-05T06:14:31.406Z,2.72
2022-11-05T06:15:35.691Z,3.21
2022-11-05T06:16:32.899Z,3.82
2022-11-05T06:17:32.230Z,4.50
2022-11-05T06:18:30.323Z,5.26
2022-11-05T06:19:31.609Z,6.13
2022-11-05T06:20:30.848Z,7.07
2022-11-05T06:21:31.166Z,8.15
2022-11-05T06:22:31.364Z,9.26
2022-11-05T06:23:31.650Z,10.24
2022-11-05T06:24:31.889Z,11.45
2022-11-05T06:25:31.124Z,13.60
2022-11-05T06:26:30.353Z,15.61
2022-11-05T06:27:32.706Z,17.82
2022-11-05T06:28:30.905Z,20.05
2022-11-05T06:29:32.320Z,22.48
2022-11-05T06:30:31.438Z,24.98
2022-11-05T06:31:30.671Z,27.93
2022-11-05T06:32:32.001Z,31.54
2022-11-05T06:33:30.190Z,34.39
2022-11-05T06:34:31.512Z,38.19
2022-11-05T06:35:31.817Z,41.93
2022-11-05T06:36:30.991Z,46.24
2022-11-05T06:37:30.221Z,52.01
2022-11-05T06:38:32.566Z,59.31
2022-11-05T06:39:30.766Z,67.40
2022-11-05T06:40:39.457Z,79.07
2022-11-05T06:41:38.105Z,88.68
2022-11-05T06:42:31.509Z,99.72
2022-11-05T06:43:30.751Z,109.86
2022-11-05T06:44:31.014Z,119.41
2022-11-05T06:45:30.235Z,125.39
2022-11-05T06:46:30.640Z,130.89
2022-11-05T06:47:31.799Z,133.85
2022-11-05T06:48:31.018Z,129.77
2022-11-05T06:49:32.309Z,126.15
2022-11-05T06:50:30.507Z,136.42
2022-11-05T06:51:30.795Z,153.36
2022-11-05T06:52:31.042Z,163.47
2022-11-05T06:53:31.283Z,169.18
2022-11-05T06:54:31.578Z,175.44
2022-11-05T06:55:31.845Z,180.69
2022-11-05T06:56:32.109Z,185.76
2022-11-05T06:57:30.275Z,189.45
2022-11-05T06:58:31.577Z,190.89
2022-11-05T06:59:30.815Z,189.39
2022-11-05T07:00:30.158Z,185.84
2022-11-05T07:01:31.457Z,181.39
2022-11-05T07:02:31.757Z,176.43
2022-11-05T07:03:30.867Z,172.38
2022-11-05T07:04:32.199Z,168.93
2022-11-05T07:05:56.462Z,160.69
2022-11-05T07:06:34.351Z,156.65
2022-11-05T07:07:30.869Z,149.83
2022-11-05T07:08:30.213Z,146.25
2022-11-05T07:09:31.436Z,146.19
2022-11-05T07:10:32.666Z,143.40
2022-11-05T07:11:29.901Z,124.68
2022-11-05T07:12:31.149Z,116.51
2022-11-05T07:13:30.617Z,112.04
2022-11-05T07:14:29.669Z,112.35
2022-11-05T07:15:29.997Z,109.48
2022-11-05T07:16:31.259Z,107.76
2022-11-05T07:17:31.505Z,107.83
2022-11-05T07:18:30.733Z,113.60
2022-11-05T07:19:32.027Z,124.44
2022-11-05T07:20:34.159Z,134.68
2022-11-05T07:21:30.510Z,137.94
2022-11-05T07:22:30.826Z,132.22
2022-11-05T07:23:30.014Z,125.53
2022-11-05T07:24:31.350Z,146.66
2022-11-05T07:25:31.504Z,183.67
2022-11-05T07:26:34.371Z,212.27
2022-11-05T07:27:30.906Z,232.44
2022-11-05T07:28:31.221Z,246.91
2022-11-05T07:29:30.443Z,256.25
2022-11-05T07:30:30.721Z,255.44
2022-11-05T07:31:30.962Z,262.27
2022-11-05T07:32:30.183Z,277.03
2022-11-05T07:33:35.257Z,304.77
2022-11-05T07:35:48.832Z,357.94
2022-11-05T07:35:54.878Z,361.60
2022-11-05T07:36:55.142Z,388.18
2022-11-05T07:37:56.451Z,410.78
2022-11-05T07:38:59.951Z,420.10
2022-11-05T07:39:56.900Z,431.46
2022-11-05T07:40:56.201Z,400.78
2022-11-05T07:41:55.410Z,351.79
2022-11-05T07:42:54.648Z,289.28
2022-11-05T07:43:54.903Z,329.88
2022-11-05T07:44:56.244Z,324.35
2022-11-05T07:45:54.430Z,310.91
2022-11-05T07:46:54.752Z,477.31
2022-11-05T07:47:56.066Z,375.50
2022-11-05T07:48:56.262Z,535.42
2022-11-05T07:49:54.451Z,518.93
2022-11-05T07:50:55.760Z,542.92
2022-11-05T07:51:56.166Z,569.54
2022-11-05T07:52:55.306Z,573.71
2022-11-05T07:53:54.511Z,588.78
2022-11-05T07:54:54.780Z,614.59
2022-11-05T07:55:56.031Z,640.12
2022-11-05T07:56:55.343Z,658.66
2022-11-05T07:57:54.624Z,669.89
2022-11-05T07:58:54.931Z,679.66
2022-11-05T07:59:55.122Z,690.48
2022-11-05T08:00:54.562Z,702.15
2022-11-05T08:01:54.898Z,711.68
2022-11-05T08:02:55.151Z,715.66
2022-11-05T08:03:55.157Z,714.37
2022-11-05T08:04:54.394Z,709.43
2022-11-05T08:05:54.662Z,700.81
2022-11-05T08:06:54.908Z,686.97
2022-11-05T08:07:55.230Z,672.96
2022-11-05T08:08:54.426Z,658.63
2022-11-05T08:09:54.704Z,625.12
2022-11-05T08:10:54.945Z,533.11
2022-11-05T08:11:59.864Z,487.22
2022-11-05T08:12:55.496Z,569.68
2022-11-05T08:13:55.760Z,606.07
2022-11-05T08:14:56.011Z,650.05
2022-11-05T08:15:54.173Z,650.98
2022-11-05T08:16:54.411Z,656.81
2022-11-05T08:17:54.680Z,694.21
2022-11-05T08:18:54.953Z,714.56
2022-11-05T08:19:55.183Z,670.33
2022-11-05T08:20:54.097Z,588.86
2022-11-05T08:21:54.342Z,537.75
2022-11-05T08:22:54.671Z,519.06
2022-11-05T08:23:54.851Z,621.85
2022-11-05T08:24:54.656Z,571.39
2022-11-05T08:25:54.827Z,565.28
2022-11-05T08:26:55.104Z,619.56
2022-11-05T08:27:55.301Z,636.64
2022-11-05T08:28:54.505Z,566.74
2022-11-05T08:29:54.750Z,730.48
2022-11-05T08:30:54.985Z,710.90
2022-11-05T08:31:54.396Z,708.08
2022-11-05T08:32:54.636Z,587.27
2022-11-05T08:33:59.689Z,738.75
2022-11-05T08:34:55.097Z,679.60
2022-11-05T08:35:54.342Z,641.15
2022-11-05T08:36:54.545Z,652.89
2022-11-05T08:37:55.806Z,585.55
2022-11-05T08:38:53.957Z,592.07
2022-11-05T08:39:56.412Z,595.52
2022-11-05T08:40:54.417Z,595.54
2022-11-05T08:41:55.716Z,594.90
2022-11-05T08:42:53.861Z,596.43
2022-11-05T08:43:56.174Z,636.42
2022-11-05T08:44:56.518Z,760.38
2022-11-05T08:45:54.526Z,811.79
2022-11-05T08:46:53.725Z,827.93
2022-11-05T08:47:54.992Z,823.33
2022-11-05T08:48:54.314Z,731.96
2022-11-05T08:49:54.530Z,600.57
2022-11-05T08:50:55.871Z,617.49
2022-11-05T08:51:56.063Z,623.05
2022-11-05T08:52:54.225Z,624.41
2022-11-05T08:53:55.508Z,626.71
2022-11-05T08:54:55.735Z,630.25
2022-11-05T08:55:53.902Z,630.25
2022-11-05T08:56:56.250Z,632.20
2022-11-05T08:57:54.387Z,634.29
2022-11-05T08:59:19.512Z,637.51
2022-11-05T08:59:54.839Z,639.73
2022-11-05T09:00:54.275Z,641.49
2022-11-05T09:02:23.406Z,645.90
2022-11-05T09:02:54.925Z,647.52
2022-11-05T09:03:57.841Z,654.60
2022-11-05T09:04:53.954Z,659.95
2022-11-05T09:05:55.140Z,648.60
2022-11-05T09:06:54.501Z,835.39
2022-11-05T09:07:59.405Z,859.68
2022-11-05T09:08:55.859Z,799.82
2022-11-05T09:09:54.456Z,618.38
2022-11-05T09:10:55.634Z,670.17
2022-11-05T09:12:57.315Z,673.68
2022-11-05T09:13:53.349Z,674.85
2022-11-05T09:14:55.565Z,675.44
2022-11-05T09:15:53.788Z,679.03
2022-11-05T09:16:56.024Z,682.76
2022-11-05T09:17:56.259Z,682.82
2022-11-05T09:18:55.385Z,686.45
2022-11-05T09:19:55.614Z,689.16
2022-11-05T09:20:54.855Z,690.38
2022-11-05T09:21:56.017Z,692.67
2022-11-05T09:22:55.183Z,698.70
2022-11-05T09:23:55.400Z,701.69
2022-11-05T09:24:53.642Z,703.12
2022-11-05T09:25:55.929Z,707.09
2022-11-05T09:26:55.031Z,711.44
2022-11-05T09:27:55.127Z,717.50
2022-11-05T09:28:54.034Z,725.22
2022-11-05T09:30:09.260Z,733.63
2022-11-05T09:30:54.977Z,738.23
2022-11-05T09:31:53.134Z,744.18
2022-11-05T09:33:47.291Z,746.12
2022-11-05T09:33:53.583Z,745.78
2022-11-05T09:34:55.276Z,744.52
2022-11-05T09:35:55.032Z,757.93
2022-11-05T09:36:53.226Z,773.74
2022-11-05T09:37:56.835Z,803.26
2022-11-05T09:38:56.642Z,818.80
2022-11-05T09:39:53.870Z,816.80
2022-11-05T09:40:53.059Z,763.00
2022-11-05T09:42:07.840Z,772.61
2022-11-05T09:42:55.389Z,659.93
2022-11-05T09:43:54.636Z,857.17
2022-11-05T09:45:08.405Z,893.16
2022-11-05T09:45:54.063Z,781.51
2022-11-05T09:46:53.247Z,870.50
2022-11-05T09:47:53.567Z,914.49
2022-11-05T09:48:53.631Z,927.79
2022-11-05T09:49:53.831Z,932.40
2022-11-05T09:50:53.955Z,935.27
2022-11-05T09:51:53.357Z,945.98
2022-11-05T09:52:53.405Z,931.17
2022-11-05T09:53:53.838Z,919.86
2022-11-05T09:54:54.723Z,910.69
2022-11-05T09:55:52.909Z,952.68
2022-11-05T09:56:54.130Z,906.37
2022-11-05T09:57:53.317Z,745.68
2022-11-05T09:58:54.405Z,751.33
2022-11-05T09:59:56.045Z,794.30
2022-11-05T10:00:54.741Z,880.25
2022-11-05T10:01:57.148Z,855.07
2022-11-05T10:02:53.113Z,844.00
2022-11-05T10:03:53.295Z,828.73
2022-11-05T10:04:53.563Z,822.13
2022-11-05T10:05:55.742Z,821.44
2022-11-05T10:06:53.728Z,831.17
2022-11-05T10:08:07.446Z,774.02
2022-11-05T10:08:55.630Z,849.98
2022-11-05T10:09:53.316Z,875.51
2022-11-05T10:10:59.758Z,881.60
2022-11-05T10:11:53.657Z,883.89
2022-11-05T10:12:54.879Z,893.03
2022-11-05T10:13:53.016Z,887.75
2022-11-05T10:14:53.304Z,852.56
2022-11-05T10:15:54.261Z,809.53
2022-11-05T10:16:54.442Z,862.53
2022-11-05T10:17:52.646Z,859.98
2022-11-05T10:18:52.851Z,828.40
2022-11-05T10:19:53.035Z,876.86
2022-11-05T10:20:53.311Z,880.83
2022-11-05T10:22:11.466Z,909.58
2022-11-05T10:22:53.642Z,928.03
2022-11-05T10:24:07.401Z,955.85
2022-11-05T10:24:54.011Z,977.51
2022-11-05T10:25:54.066Z,1006.59
2022-11-05T10:26:55.508Z,1033.99
2022-11-05T10:27:53.915Z,1059.71
2022-11-05T10:28:53.868Z,1080.74
2022-11-05T10:29:54.071Z,1092.33
2022-11-05T10:30:55.174Z,1103.43
2022-11-05T10:31:52.410Z,1103.93
2022-11-05T10:32:53.774Z,1096.20
2022-11-05T10:33:53.642Z,1069.72
2022-11-05T10:35:07.509Z,990.62
2022-11-05T10:35:56.219Z,1003.05
2022-11-05T10:36:52.354Z,983.58
2022-11-05T10:37:53.594Z,955.92
2022-11-05T10:38:52.729Z,946.57
2022-11-05T10:39:54.076Z,939.34
2022-11-05T10:40:54.189Z,943.34
2022-11-05T10:41:54.312Z,950.31
2022-11-05T10:42:53.500Z,946.78
2022-11-05T10:43:56.285Z,948.11
2022-11-05T10:44:52.975Z,952.91
2022-11-05T10:45:55.421Z,956.11
2022-11-05T10:46:52.348Z,960.51
2022-11-05T10:47:52.521Z,963.95
2022-11-05T10:48:52.750Z,941.85
2022-11-05T10:49:53.950Z,962.94
2022-11-05T10:50:52.971Z,975.42
2022-11-05T10:51:53.377Z,954.77
2022-11-05T10:52:53.516Z,924.06
2022-11-05T10:53:58.738Z,838.40
2022-11-05T10:54:53.880Z,948.80
2022-11-05T10:55:53.104Z,931.34
2022-11-05T10:56:52.244Z,876.96
2022-11-05T10:57:52.753Z,875.91
2022-11-05T10:58:53.474Z,669.21
2022-11-05T10:59:53.883Z,658.39
2022-11-05T11:00:52.152Z,687.28
2022-11-05T11:01:52.413Z,730.60
2022-11-05T11:02:52.503Z,662.56
2022-11-05T11:03:52.697Z,658.69
2022-11-05T11:04:52.874Z,636.72
2022-11-05T11:05:53.031Z,591.94
2022-11-05T11:06:54.250Z,563.23
2022-11-05T11:07:53.382Z,557.12
2022-11-05T11:09:20.971Z,555.38
2022-11-05T11:09:52.843Z,563.18
2022-11-05T11:10:52.023Z,579.61
2022-11-05T11:11:54.313Z,592.78
2022-11-05T11:12:53.473Z,610.53
2022-11-05T11:13:52.673Z,626.52
2022-11-05T11:14:52.708Z,643.39
2022-11-05T11:15:54.089Z,655.27
2022-11-05T11:16:52.286Z,667.92
2022-11-05T11:17:52.511Z,676.53
2022-11-05T11:19:01.152Z,690.67
2022-11-05T11:19:53.062Z,707.82
2022-11-05T11:20:52.100Z,712.87
2022-11-05T11:21:54.410Z,714.61
2022-11-05T11:22:55.515Z,714.81
2022-11-05T11:23:52.610Z,712.92
2022-11-05T11:24:55.065Z,717.32
2022-11-05T11:25:52.200Z,724.80
2022-11-05T11:26:52.440Z,722.80
2022-11-05T11:27:54.699Z,721.70
2022-11-05T11:28:53.871Z,700.63
2022-11-05T11:29:52.152Z,722.69
2022-11-05T11:30:53.218Z,719.46
2022-11-05T11:31:53.369Z,715.50
2022-11-05T11:32:51.606Z,755.89
2022-11-05T11:33:51.796Z,739.81
2022-11-05T11:34:51.997Z,712.51
2022-11-05T11:35:54.494Z,790.33
2022-11-05T11:36:53.451Z,836.56
2022-11-05T11:38:06.105Z,731.65
2022-11-05T11:38:53.250Z,823.75
2022-11-05T11:39:52.939Z,803.97
2022-11-05T11:40:53.185Z,698.55
2022-11-05T11:42:42.704Z,696.11
2022-11-05T11:42:51.562Z,560.44
2022-11-05T11:43:52.709Z,543.60
2022-11-05T11:44:52.905Z,560.44
2022-11-05T11:45:52.137Z,575.67
2022-11-05T11:46:52.287Z,579.85
2022-11-05T11:48:07.251Z,532.20
2022-11-05T11:48:54.179Z,500.19
2022-11-05T11:49:51.930Z,477.63
2022-11-05T11:50:52.100Z,481.75
2022-11-05T11:51:52.352Z,510.12
2022-11-05T11:52:51.494Z,524.02
2022-11-05T11:53:51.758Z,526.90
2022-11-05T11:54:52.872Z,519.56
2022-11-05T11:55:52.951Z,496.05
2022-11-05T11:56:51.287Z,487.90
2022-11-05T11:57:51.473Z,487.90
2022-11-05T11:58:51.702Z,485.25
2022-11-05T12:00:08.328Z,399.21
2022-11-05T12:00:53.078Z,462.27
2022-11-05T12:01:54.499Z,431.22
2022-11-05T12:03:01.926Z,420.82
2022-11-05T12:03:53.362Z,427.35
2022-11-05T12:04:51.868Z,439.94
2022-11-05T12:05:52.679Z,438.65
2022-11-05T12:06:53.273Z,420.52
2022-11-05T12:07:53.491Z,413.36
2022-11-05T12:09:07.122Z,420.19
2022-11-05T12:10:06.312Z,431.60
2022-11-05T12:10:51.970Z,444.52
2022-11-05T12:11:56.346Z,442.01
2022-11-05T12:12:54.302Z,465.46
2022-11-05T12:13:51.514Z,451.38
2022-11-05T12:15:23.912Z,534.16
2022-11-05T12:15:50.895Z,590.70
2022-11-05T12:16:52.145Z,811.63
2022-11-05T12:17:52.355Z,1063.63
2022-11-05T12:19:07.072Z,875.43
2022-11-05T12:19:55.882Z,656.61
2022-11-05T12:20:57.981Z,501.30
2022-11-05T12:21:53.499Z,463.23
2022-11-05T12:22:54.369Z,478.22
2022-11-05T12:24:22.551Z,527.11
2022-11-05T12:24:51.625Z,544.25
2022-11-05T12:25:51.800Z,571.95
2022-11-05T12:26:50.985Z,573.85
2022-11-05T12:29:04.499Z,579.61
2022-11-05T12:29:17.392Z,575.73
2022-11-05T12:29:54.456Z,584.84
2022-11-05T12:31:07.391Z,617.27
2022-11-05T12:31:53.058Z,626.41
2022-11-05T12:32:52.272Z,667.87
2022-11-05T12:33:54.566Z,614.19
2022-11-05T12:34:52.609Z,614.58
2022-11-05T12:35:57.402Z,585.89
2022-11-05T12:36:53.964Z,635.62
2022-11-05T12:37:53.181Z,552.85
2022-11-05T12:38:52.426Z,555.36
2022-11-05T12:39:52.618Z,554.84
2022-11-05T12:40:51.762Z,598.22
2022-11-05T12:42:00.280Z,510.74
2022-11-05T12:42:52.150Z,501.00
2022-11-05T12:43:52.337Z,480.40
2022-11-05T12:44:53.262Z,450.37
2022-11-05T12:45:51.981Z,442.19
2022-11-05T12:46:51.890Z,446.79
2022-11-05T12:47:52.074Z,446.27
2022-11-05T12:48:53.198Z,447.23
2022-11-05T12:49:52.459Z,418.48
2022-11-05T12:50:51.596Z,406.22
2022-11-05T12:51:55.037Z,394.70
2022-11-05T12:52:52.900Z,402.27
2022-11-05T12:53:54.144Z,418.71
2022-11-05T12:54:53.342Z,419.63
2022-11-05T12:55:55.579Z,430.25
2022-11-05T12:56:52.714Z,437.67
2022-11-05T12:57:51.906Z,439.97
2022-11-05T12:58:52.072Z,451.75
2022-11-05T12:59:53.288Z,460.10
2022-11-05T13:00:52.289Z,469.82
2022-11-05T13:01:54.879Z,476.52
2022-11-05T13:02:52.827Z,481.26
2022-11-05T13:03:59.272Z,484.87
2022-11-05T13:04:52.202Z,489.87